createdAt,value
2023-08-14T00:00:01.983Z,18.17
2023-08-14T00:03:05.006Z,18.13
2023-08-14T00:06:07.656Z,17.88
2023-08-14T00:09:10.085Z,17.78
2023-08-14T00:12:12.557Z,17.67
2023-08-14T00:15:15.311Z,17.65
2023-08-14T00:18:18.065Z,17.74
2023-08-14T00:21:20.693Z,17.73
2023-08-14T00:24:23.101Z,17.73
2023-08-14T00:27:26.295Z,17.67
2023-08-14T00:30:28.714Z,17.54
2023-08-14T00:33:31.114Z,17.51
2023-08-14T00:36:33.655Z,17.46
2023-08-14T00:39:36.123Z,17.52
2023-08-14T00:42:43.541Z,17.43
2023-08-14T00:45:47.297Z,17.44
2023-08-14T00:48:50.720Z,17.57
2023-08-14T00:51:53.905Z,17.58
2023-08-14T00:54:56.351Z,17.54
2023-08-14T00:57:58.921Z,17.48
2023-08-14T01:01:01.561Z,17.34
2023-08-14T01:04:04.555Z,17.47
2023-08-14T01:07:06.967Z,17.54
2023-08-14T01:10:11.503Z,17.67
2023-08-14T01:13:26.067Z,17.59
2023-08-14T01:16:39.419Z,17.70
2023-08-14T01:19:42.862Z,17.68
2023-08-14T01:23:07.077Z,17.69
2023-08-14T01:26:09.823Z,17.65
2023-08-14T01:29:12.473Z,17.51
2023-08-14T01:32:15.277Z,17.26
2023-08-14T01:35:20.824Z,17.26
2023-08-14T01:38:33.108Z,17.22
2023-08-14T01:42:03.983Z,17.17
2023-08-14T01:45:13.499Z,17.12
2023-08-14T01:48:16.412Z,17.17
2023-08-14T01:51:20.621Z,17.30
2023-08-14T01:54:23.079Z,17.30
2023-08-14T01:57:26.531Z,17.39
2023-08-14T02:00:33.036Z,17.40
2023-08-14T02:03:35.900Z,17.36
2023-08-14T02:06:38.293Z,17.26
2023-08-14T02:09:40.712Z,17.43
2023-08-14T02:12:43.136Z,17.71
2023-08-14T02:15:47.072Z,17.67
2023-08-14T02:18:49.628Z,17.60
2023-08-14T02:21:52.036Z,17.49
2023-08-14T02:24:54.547Z,17.49
2023-08-14T02:27:56.934Z,17.52
2023-08-14T02:31:03.018Z,17.65
2023-08-14T02:34:05.491Z,17.38
2023-08-14T02:37:07.870Z,17.29
2023-08-14T02:40:10.735Z,17.43
2023-08-14T02:43:13.155Z,17.36
2023-08-14T02:46:16.374Z,17.40
2023-08-14T02:49:18.902Z,17.47
2023-08-14T02:52:21.358Z,17.29
2023-08-14T02:55:23.956Z,17.18
2023-08-14T02:58:26.696Z,17.11
2023-08-14T03:01:29.148Z,16.74
2023-08-14T03:04:31.631Z,16.55
2023-08-14T03:07:34.111Z,16.46
2023-08-14T03:10:36.518Z,16.41
2023-08-14T03:13:38.943Z,16.29
2023-08-14T03:16:41.461Z,16.30
2023-08-14T03:19:43.980Z,16.33
2023-08-14T03:22:46.517Z,16.44
2023-08-14T03:25:48.961Z,16.31
2023-08-14T03:28:51.368Z,16.22
2023-08-14T03:31:54.012Z,16.39
2023-08-14T03:34:56.977Z,16.27
2023-08-14T03:38:00.392Z,16.28
2023-08-14T03:41:03.050Z,16.27
2023-08-14T03:44:06.408Z,16.32
2023-08-14T03:47:09.112Z,16.31
2023-08-14T03:50:11.908Z,16.39
2023-08-14T03:53:14.964Z,16.43
2023-08-14T03:56:17.440Z,16.44
2023-08-14T03:59:19.870Z,16.60
2023-08-14T04:02:22.362Z,16.85
2023-08-14T04:05:24.792Z,16.98
2023-08-14T04:08:27.218Z,17.23
2023-08-14T04:11:30.028Z,18.27
2023-08-14T04:14:34.092Z,19.37
2023-08-14T04:17:36.576Z,20.30
2023-08-14T04:20:39.040Z,22.01
2023-08-14T04:23:41.405Z,25.38
2023-08-14T04:26:43.959Z,27.24
2023-08-14T04:29:48.111Z,27.20
2023-08-14T04:32:50.581Z,27.75
2023-08-14T04:35:53.296Z,26.76
2023-08-14T04:38:56.151Z,26.46
2023-08-14T04:42:00.008Z,27.15
2023-08-14T04:45:04.108Z,27.17
2023-08-14T04:48:06.853Z,27.94
2023-08-14T04:51:09.403Z,28.89
2023-08-14T04:54:12.002Z,29.24
2023-08-14T04:57:14.434Z,29.40
2023-08-14T05:00:17.220Z,30.42
2023-08-14T05:03:20.200Z,30.82
2023-08-14T05:06:24.058Z,30.58
2023-08-14T05:09:27.939Z,30.49
2023-08-14T05:12:32.382Z,31.63
2023-08-14T05:15:34.972Z,31.92
2023-08-14T05:18:37.408Z,32.20
2023-08-14T05:21:39.929Z,32.73
2023-08-14T05:24:42.323Z,32.80
2023-08-14T05:27:44.675Z,32.55
2023-08-14T05:30:47.163Z,32.58
2023-08-14T05:33:49.649Z,32.61
2023-08-14T05:36:52.077Z,34.22
2023-08-14T05:39:54.498Z,34.59
2023-08-14T05:43:04.871Z,33.97
2023-08-14T05:46:07.408Z,34.87
2023-08-14T05:49:09.953Z,35.29
2023-08-14T05:52:12.360Z,33.76
2023-08-14T05:55:15.251Z,35.37
2023-08-14T05:58:17.685Z,34.81
2023-08-14T06:01:20.180Z,34.96
2023-08-14T06:04:22.842Z,35.04
2023-08-14T06:07:25.289Z,35.75
2023-08-14T06:10:27.914Z,36.21
2023-08-14T06:13:30.272Z,36.44
2023-08-14T06:16:32.721Z,36.63
2023-08-14T06:19:35.235Z,35.62
2023-08-14T06:22:41.673Z,37.53
2023-08-14T06:25:44.763Z,36.67
2023-08-14T06:28:47.218Z,37.74
2023-08-14T06:31:49.642Z,37.97
2023-08-14T06:34:52.086Z,38.50
2023-08-14T06:37:54.497Z,38.21
2023-08-14T06:40:56.905Z,39.95
2023-08-14T06:43:59.316Z,39.44
2023-08-14T06:47:02.082Z,39.23
2023-08-14T06:50:04.676Z,38.99
2023-08-14T06:53:07.064Z,40.74
2023-08-14T06:56:09.955Z,40.82
2023-08-14T06:59:12.349Z,41.21
2023-08-14T07:02:14.791Z,41.05
2023-08-14T07:05:17.206Z,40.92
2023-08-14T07:08:19.661Z,41.36
2023-08-14T07:11:22.144Z,41.13
2023-08-14T07:14:30.458Z,40.70
2023-08-14T07:17:33.585Z,41.38
2023-08-14T07:20:36.172Z,40.85
2023-08-14T07:23:38.710Z,41.18
2023-08-14T07:26:42.172Z,41.91
2023-08-14T07:29:45.453Z,40.44
2023-08-14T07:32:47.913Z,40.38
2023-08-14T07:35:50.392Z,42.25
2023-08-14T07:38:52.817Z,40.79
2023-08-14T07:41:55.258Z,42.37
2023-08-14T07:44:57.683Z,42.29
2023-08-14T07:48:00.120Z,42.16
2023-08-14T07:51:02.586Z,42.33
2023-08-14T07:54:05.197Z,41.86
2023-08-14T07:57:07.646Z,41.98
2023-08-14T08:00:10.906Z,42.07
2023-08-14T08:03:16.175Z,42.72
2023-08-14T08:06:18.559Z,42.99
2023-08-14T08:09:20.973Z,42.31
2023-08-14T08:12:23.368Z,42.18
2023-08-14T08:15:25.783Z,42.65
2023-08-14T08:18:28.246Z,42.94
2023-08-14T08:21:30.767Z,41.98
2023-08-14T08:24:33.198Z,43.59
2023-08-14T08:27:36.595Z,42.59
2023-08-14T08:30:39.691Z,42.68
2023-08-14T08:33:42.042Z,43.33
2023-08-14T08:36:44.445Z,41.29
2023-08-14T08:39:49.586Z,40.72
2023-08-14T08:42:52.501Z,42.30
2023-08-14T08:45:59.184Z,43.05
2023-08-14T08:49:03.912Z,41.84
2023-08-14T08:52:07.141Z,41.78
2023-08-14T08:55:09.791Z,40.88
2023-08-14T08:58:16.500Z,42.18
2023-08-14T09:01:20.146Z,43.22
2023-08-14T09:04:22.789Z,42.05
2023-08-14T09:07:25.320Z,41.29
2023-08-14T09:10:28.960Z,43.09
2023-08-14T09:13:32.607Z,43.19
2023-08-14T09:16:35.438Z,41.25
2023-08-14T09:19:40.085Z,42.44
2023-08-14T09:22:42.613Z,41.42
2023-08-14T09:25:48.806Z,41.91
2023-08-14T09:28:51.736Z,41.17
2023-08-14T09:31:54.543Z,42.05
2023-08-14T09:35:01.255Z,41.26
2023-08-14T09:38:04.285Z,41.00
2023-08-14T09:41:07.177Z,42.42
2023-08-14T09:44:09.579Z,42.15
2023-08-14T09:47:14.778Z,41.78
2023-08-14T09:50:19.040Z,41.79
2023-08-14T09:53:21.451Z,41.05
2023-08-14T09:56:24.958Z,39.61
2023-08-14T09:59:28.083Z,41.12
2023-08-14T10:02:33.373Z,41.01
2023-08-14T10:05:38.987Z,40.22
2023-08-14T10:08:45.441Z,41.00
2023-08-14T10:11:49.020Z,40.12
2023-08-14T10:15:12.826Z,40.94
2023-08-14T10:18:17.576Z,38.80
2023-08-14T10:21:21.374Z,39.45
2023-08-14T10:24:25.070Z,40.56
2023-08-14T10:27:28.596Z,39.70
2023-08-14T10:30:32.345Z,40.16
2023-08-14T10:33:35.098Z,38.97
2023-08-14T10:36:40.060Z,37.37
2023-08-14T10:39:42.474Z,38.69
2023-08-14T10:42:57.103Z,37.75
2023-08-14T10:45:59.673Z,37.40
2023-08-14T10:49:02.196Z,33.90
2023-08-14T10:52:05.043Z,32.79
2023-08-14T10:55:16.627Z,32.81
2023-08-14T10:58:40.082Z,32.90
2023-08-14T11:01:42.555Z,32.61
2023-08-14T11:05:02.174Z,32.83
2023-08-14T11:08:07.635Z,32.82
2023-08-14T11:11:12.045Z,32.60
2023-08-14T11:14:14.516Z,32.23
2023-08-14T11:17:17.389Z,32.09
2023-08-14T11:20:20.379Z,32.13
2023-08-14T11:23:22.807Z,32.70
2023-08-14T11:26:29.661Z,32.76
2023-08-14T11:29:33.183Z,32.74
2023-08-14T11:32:36.019Z,32.95
2023-08-14T11:35:38.530Z,32.55
2023-08-14T11:38:41.555Z,32.23
2023-08-14T11:41:43.947Z,32.49
2023-08-14T11:44:46.345Z,32.29
2023-08-14T11:47:50.383Z,32.50
2023-08-14T11:50:52.958Z,31.67
2023-08-14T11:53:55.529Z,32.33
2023-08-14T11:56:57.965Z,32.69
2023-08-14T12:00:04.494Z,32.72
2023-08-14T12:03:08.543Z,32.26
2023-08-14T12:06:12.043Z,32.51
2023-08-14T12:09:14.432Z,32.38
2023-08-14T12:12:18.153Z,32.26
2023-08-14T12:15:24.246Z,31.55
2023-08-14T12:18:27.163Z,31.78
2023-08-14T12:21:29.642Z,31.75
2023-08-14T12:24:42.996Z,32.14
2023-08-14T12:27:45.443Z,31.98
2023-08-14T12:30:49.585Z,32.18
2023-08-14T12:33:59.225Z,31.75
2023-08-14T12:37:08.653Z,31.98
2023-08-14T12:40:11.923Z,32.18
2023-08-14T12:43:14.508Z,32.12
2023-08-14T12:46:17.005Z,32.21
2023-08-14T12:49:20.454Z,31.87
2023-08-14T12:52:22.807Z,31.42
2023-08-14T12:55:25.373Z,31.39
2023-08-14T12:58:27.800Z,31.65
2023-08-14T13:01:30.583Z,31.64
2023-08-14T13:04:36.275Z,31.85
2023-08-14T13:07:39.216Z,31.27
2023-08-14T13:10:41.578Z,31.36
2023-08-14T13:13:43.952Z,31.59
2023-08-14T13:16:46.542Z,31.80
2023-08-14T13:19:50.061Z,31.72
2023-08-14T13:22:52.726Z,31.66
2023-08-14T13:25:55.166Z,31.92
2023-08-14T13:28:57.913Z,31.84
2023-08-14T13:32:00.423Z,31.62
2023-08-14T13:35:03.103Z,31.24
2023-08-14T13:38:05.632Z,31.50
2023-08-14T13:41:09.169Z,31.57
2023-08-14T13:44:12.834Z,31.09
2023-08-14T13:47:17.259Z,31.09
2023-08-14T13:50:31.860Z,31.30
2023-08-14T13:53:35.882Z,31.21
2023-08-14T13:56:38.323Z,31.08
2023-08-14T13:59:40.743Z,31.23
2023-08-14T14:02:43.268Z,30.78
2023-08-14T14:05:45.704Z,31.19
2023-08-14T14:08:48.273Z,31.26
2023-08-14T14:11:50.671Z,31.11
2023-08-14T14:14:53.031Z,31.03
2023-08-14T14:17:55.731Z,31.29
2023-08-14T14:20:59.392Z,31.24
2023-08-14T14:24:02.077Z,31.10
2023-08-14T14:27:04.731Z,31.31
2023-08-14T14:30:08.263Z,31.03
2023-08-14T14:33:11.238Z,31.21
2023-08-14T14:36:13.620Z,31.06
2023-08-14T14:39:16.656Z,30.93
2023-08-14T14:42:20.672Z,30.91
2023-08-14T14:45:33.352Z,31.20
2023-08-14T14:48:37.492Z,31.10
2023-08-14T14:51:39.922Z,31.11
2023-08-14T14:54:42.306Z,31.03
2023-08-14T14:57:44.725Z,31.01
2023-08-14T15:00:50.769Z,30.85
2023-08-14T15:03:53.312Z,30.80
2023-08-14T15:06:55.890Z,30.83
2023-08-14T15:09:58.268Z,30.74
2023-08-14T15:13:00.743Z,30.80
2023-08-14T15:16:03.292Z,30.64
2023-08-14T15:19:06.060Z,30.65
2023-08-14T15:22:08.507Z,30.64
2023-08-14T15:25:13.132Z,30.72
2023-08-14T15:28:15.868Z,30.60
2023-08-14T15:31:18.291Z,30.52
2023-08-14T15:34:20.810Z,30.33
2023-08-14T15:37:23.346Z,30.27
2023-08-14T15:40:25.828Z,30.46
2023-08-14T15:43:28.328Z,30.39
2023-08-14T15:46:30.765Z,30.31
2023-08-14T15:49:33.197Z,30.31
2023-08-14T15:52:35.789Z,30.27
2023-08-14T15:55:39.918Z,30.03
2023-08-14T15:58:42.259Z,30.05
2023-08-14T16:01:47.093Z,30.02
2023-08-14T16:04:50.455Z,29.81
2023-08-14T16:07:53.228Z,29.77
2023-08-14T16:10:55.619Z,29.67
2023-08-14T16:13:58.536Z,29.74
2023-08-14T16:17:00.953Z,29.66
2023-08-14T16:20:05.099Z,29.52
2023-08-14T16:23:07.574Z,29.43
2023-08-14T16:26:09.986Z,29.52
2023-08-14T16:29:12.760Z,29.50
2023-08-14T16:32:16.031Z,29.49
2023-08-14T16:35:18.460Z,29.32
2023-08-14T16:38:20.891Z,29.30
2023-08-14T16:41:23.281Z,29.29
2023-08-14T16:44:25.765Z,29.02
2023-08-14T16:47:29.329Z,29.01
2023-08-14T16:50:31.997Z,29.01
2023-08-14T16:53:34.565Z,28.88
2023-08-14T16:56:39.088Z,28.78
2023-08-14T16:59:41.526Z,28.68
2023-08-14T17:02:44.001Z,28.48
2023-08-14T17:05:46.377Z,28.36
2023-08-14T17:08:48.759Z,28.22
2023-08-14T17:11:51.139Z,28.04
2023-08-14T17:14:53.506Z,27.88
2023-08-14T17:17:55.986Z,27.71
2023-08-14T17:20:58.782Z,27.40
2023-08-14T17:24:01.215Z,26.86
2023-08-14T17:27:03.919Z,26.58
2023-08-14T17:30:07.155Z,26.32
2023-08-14T17:33:09.719Z,26.00
2023-08-14T17:36:12.134Z,25.76
2023-08-14T17:39:14.556Z,25.50
2023-08-14T17:42:17.173Z,25.19
2023-08-14T17:45:19.572Z,24.94
2023-08-14T17:48:22.326Z,24.45
2023-08-14T17:51:24.776Z,24.21
2023-08-14T17:54:27.166Z,24.21
2023-08-14T17:57:29.497Z,24.26
2023-08-14T18:00:31.945Z,23.78
2023-08-14T18:03:35.243Z,23.79
2023-08-14T18:06:37.750Z,23.66
2023-08-14T18:09:40.145Z,23.71
2023-08-14T18:12:42.559Z,23.57
2023-08-14T18:15:45.276Z,23.45
2023-08-14T18:18:47.739Z,23.16
2023-08-14T18:21:50.137Z,23.00
2023-08-14T18:24:52.506Z,22.92
2023-08-14T18:27:54.914Z,22.64
2023-08-14T18:30:57.338Z,22.38
2023-08-14T18:33:59.803Z,22.49
2023-08-14T18:37:02.266Z,22.46
2023-08-14T18:40:05.279Z,22.27
2023-08-14T18:43:08.337Z,22.22
2023-08-14T18:46:10.777Z,22.34
2023-08-14T18:49:13.252Z,22.37
2023-08-14T18:52:15.697Z,22.29
2023-08-14T18:55:18.110Z,22.17
2023-08-14T18:58:20.605Z,22.06
2023-08-14T19:01:23.082Z,22.00
2023-08-14T19:04:40.994Z,22.27
2023-08-14T19:07:44.417Z,22.43
2023-08-14T19:10:46.826Z,22.72
2023-08-14T19:13:49.326Z,22.71
2023-08-14T19:16:51.754Z,22.87
2023-08-14T19:19:54.242Z,22.76
2023-08-14T19:22:56.669Z,22.41
2023-08-14T19:25:59.064Z,22.02
2023-08-14T19:29:01.488Z,21.82
2023-08-14T19:32:04.126Z,21.62
2023-08-14T19:35:07.248Z,21.49
2023-08-14T19:38:10.035Z,21.05
2023-08-14T19:41:12.476Z,20.73
2023-08-14T19:44:14.868Z,20.67
2023-08-14T19:47:17.522Z,20.54
2023-08-14T19:50:20.316Z,20.68
2023-08-14T19:53:22.747Z,20.93
2023-08-14T19:56:25.104Z,20.83
2023-08-14T19:59:27.551Z,20.57
2023-08-14T20:02:29.969Z,20.35
2023-08-14T20:05:32.444Z,20.33
2023-08-14T20:08:34.885Z,20.15
2023-08-14T20:11:37.264Z,20.11
2023-08-14T20:14:41.328Z,20.15
2023-08-14T20:17:43.877Z,20.15
2023-08-14T20:20:46.543Z,20.12
2023-08-14T20:23:48.895Z,20.21
2023-08-14T20:26:51.397Z,20.31
2023-08-14T20:29:54.096Z,20.24
2023-08-14T20:32:56.643Z,20.14
2023-08-14T20:35:59.086Z,20.06
2023-08-14T20:39:01.563Z,19.87
2023-08-14T20:42:04.086Z,19.66
2023-08-14T20:45:07.214Z,19.70
2023-08-14T20:48:09.969Z,19.83
2023-08-14T20:51:13.057Z,19.90
2023-08-14T20:54:15.465Z,19.76
2023-08-14T20:57:18.525Z,19.67
2023-08-14T21:00:21.136Z,19.48
2023-08-14T21:03:23.721Z,19.43
2023-08-14T21:06:26.412Z,19.73
2023-08-14T21:09:29.213Z,19.73
2023-08-14T21:12:31.659Z,19.73
2023-08-14T21:15:34.181Z,20.18
2023-08-14T21:18:36.696Z,19.87
2023-08-14T21:21:39.636Z,19.51
2023-08-14T21:24:42.025Z,19.55
2023-08-14T21:27:45.744Z,19.66
2023-08-14T21:30:48.229Z,19.85
2023-08-14T21:33:50.681Z,19.71
2023-08-14T21:36:53.038Z,19.49
2023-08-14T21:39:55.533Z,19.40
2023-08-14T21:42:58.483Z,19.32
2023-08-14T21:46:01.079Z,19.15
2023-08-14T21:49:03.751Z,19.16
2023-08-14T21:52:06.801Z,18.99
2023-08-14T21:55:09.675Z,19.02
2023-08-14T21:58:12.130Z,18.88
2023-08-14T22:01:14.609Z,18.94
2023-08-14T22:04:17.154Z,18.85
2023-08-14T22:07:19.743Z,18.71
2023-08-14T22:10:22.357Z,18.43
2023-08-14T22:13:25.509Z,18.45
2023-08-14T22:16:28.322Z,18.47
2023-08-14T22:19:30.831Z,18.36
2023-08-14T22:22:33.232Z,18.69
2023-08-14T22:25:35.699Z,18.67
2023-08-14T22:28:40.264Z,18.40
2023-08-14T22:31:42.646Z,18.42
2023-08-14T22:34:45.059Z,18.31
2023-08-14T22:37:47.416Z,18.41
2023-08-14T22:40:51.378Z,18.51
2023-08-14T22:43:53.794Z,18.50
2023-08-14T22:46:56.294Z,18.43
2023-08-14T22:49:58.689Z,18.48
2023-08-14T22:53:01.341Z,18.42
2023-08-14T22:56:03.907Z,18.24
2023-08-14T22:59:06.278Z,18.35
2023-08-14T23:02:08.695Z,18.28
2023-08-14T23:05:11.083Z,18.32
2023-08-14T23:08:13.430Z,18.11
2023-08-14T23:11:15.842Z,18.14
2023-08-14T23:14:18.221Z,18.10
2023-08-14T23:17:20.734Z,18.12
2023-08-14T23:20:23.296Z,18.13
2023-08-14T23:23:25.790Z,18.15
2023-08-14T23:26:28.200Z,18.11
2023-08-14T23:29:30.613Z,18.31
2023-08-14T23:32:33.076Z,17.90
2023-08-14T23:35:35.481Z,17.82
2023-08-14T23:38:37.959Z,17.89
2023-08-14T23:41:40.924Z,17.83
2023-08-14T23:44:43.320Z,17.82
2023-08-14T23:47:45.767Z,17.84
2023-08-14T23:50:48.308Z,17.78
2023-08-14T23:53:50.886Z,17.70
2023-08-14T23:56:53.257Z,17.80
2023-08-14T23:59:55.621Z,17.74
